createdAt,value
2018-06-03T00:00:03.042Z,24.12
2018-06-03T00:02:31.570Z,22.77
2018-06-03T00:05:00.081Z,24.47
2018-06-03T00:07:28.595Z,24.80
2018-06-03T00:09:56.781Z,26.15
2018-06-03T00:12:25.326Z,22.30
2018-06-03T00:14:53.839Z,26.33
2018-06-03T00:17:22.379Z,26.33
2018-06-03T00:19:50.922Z,25.30
2018-06-03T00:22:28.699Z,27.70
2018-06-03T00:24:57.243Z,26.30
2018-06-03T00:27:25.928Z,26.33
2018-06-03T00:29:54.461Z,26.50
2018-06-03T00:32:22.991Z,24.25
2018-06-03T00:34:51.564Z,26.80
2018-06-03T00:37:20.103Z,25.60
2018-06-03T00:39:48.597Z,27.32
2018-06-03T00:42:17.151Z,25.00
2018-06-03T00:44:45.667Z,24.80
2018-06-03T00:47:14.166Z,26.10
2018-06-03T00:49:42.682Z,26.62
2018-06-03T00:52:11.199Z,22.55
2018-06-03T00:54:39.723Z,27.93
2018-06-03T00:57:11.527Z,22.77
2018-06-03T00:59:40.095Z,26.87
2018-06-03T01:02:08.637Z,23.38
2018-06-03T01:04:37.159Z,27.25
2018-06-03T01:07:05.689Z,25.20
2018-06-03T01:09:34.194Z,24.43
2018-06-03T01:12:02.727Z,23.83
2018-06-03T01:14:31.241Z,24.10
2018-06-03T01:16:59.756Z,26.45
2018-06-03T01:19:28.278Z,24.45
2018-06-03T01:21:56.805Z,21.25
2018-06-03T01:24:25.334Z,24.35
2018-06-03T01:26:53.866Z,24.30
2018-06-03T01:29:22.355Z,23.18
2018-06-03T01:31:50.843Z,24.95
2018-06-03T01:34:19.333Z,24.67
2018-06-03T01:36:47.862Z,24.37
2018-06-03T01:39:16.866Z,28.20
2018-06-03T01:41:45.390Z,23.52
2018-06-03T01:44:13.900Z,24.57
2018-06-03T01:46:42.414Z,22.87
2018-06-03T01:49:10.968Z,23.65
2018-06-03T01:51:39.458Z,23.40
2018-06-03T01:54:08.026Z,25.77
2018-06-03T01:56:36.626Z,22.55
2018-06-03T01:59:05.207Z,26.60
2018-06-03T02:01:33.746Z,23.07
2018-06-03T02:04:02.289Z,27.73
2018-06-03T02:06:30.851Z,25.92
2018-06-03T02:08:59.386Z,28.20
2018-06-03T02:11:27.902Z,25.60
2018-06-03T02:13:56.465Z,24.40
2018-06-03T02:16:24.995Z,28.38
2018-06-03T02:18:53.505Z,27.90
2018-06-03T02:21:22.047Z,29.25
2018-06-03T02:23:50.565Z,28.98
2018-06-03T02:26:19.102Z,23.62
2018-06-03T02:28:47.589Z,28.87
2018-06-03T02:31:16.099Z,29.90
2018-06-03T02:33:44.588Z,26.48
2018-06-03T02:36:13.105Z,26.75
2018-06-03T02:38:41.650Z,29.37
2018-06-03T02:41:10.163Z,28.70
2018-06-03T02:43:38.668Z,28.75
2018-06-03T02:46:07.206Z,30.55
2018-06-03T02:48:35.746Z,28.55
2018-06-03T02:51:04.274Z,27.35
2018-06-03T02:53:32.917Z,26.60
2018-06-03T02:56:01.411Z,25.27
2018-06-03T02:58:29.940Z,28.47
2018-06-03T03:00:58.519Z,26.40
2018-06-03T03:03:27.026Z,28.00
2018-06-03T03:05:55.230Z,26.90
2018-06-03T03:08:23.701Z,27.82
2018-06-03T03:10:52.216Z,28.05
2018-06-03T03:13:20.759Z,27.42
2018-06-03T03:15:49.276Z,27.90
2018-06-03T03:18:17.803Z,26.02
2018-06-03T03:20:46.321Z,26.25
2018-06-03T03:23:14.819Z,28.12
2018-06-03T03:25:43.406Z,24.00
2018-06-03T03:28:11.937Z,27.40
2018-06-03T03:30:40.483Z,32.30
2018-06-03T03:33:08.988Z,26.52
2018-06-03T03:35:37.558Z,27.73
2018-06-03T03:38:06.086Z,24.72
2018-06-03T03:40:34.610Z,24.55
2018-06-03T03:43:03.108Z,28.83
2018-06-03T03:45:31.621Z,27.22
2018-06-03T03:48:00.148Z,27.00
2018-06-03T03:50:28.802Z,27.87
2018-06-03T03:52:57.316Z,25.50
2018-06-03T03:55:25.814Z,28.27
2018-06-03T03:57:54.283Z,27.48
2018-06-03T04:00:23.111Z,28.60
2018-06-03T04:02:51.650Z,31.02
2018-06-03T04:05:20.154Z,31.02
2018-06-03T04:07:48.671Z,29.72
2018-06-03T04:10:17.218Z,32.00
2018-06-03T04:12:45.778Z,31.00
2018-06-03T04:15:14.325Z,28.50
2018-06-03T04:17:42.829Z,32.15
2018-06-03T04:20:11.323Z,29.67
2018-06-03T04:22:39.866Z,29.75
2018-06-03T04:25:08.773Z,30.60
2018-06-03T04:27:37.332Z,31.40
2018-06-03T04:30:06.604Z,29.25
2018-06-03T04:32:35.108Z,27.45
2018-06-03T04:35:03.726Z,27.30
2018-06-03T04:37:32.192Z,26.23
2018-06-03T04:40:00.706Z,29.87
2018-06-03T04:42:29.232Z,26.97
2018-06-03T04:44:57.713Z,26.57
2018-06-03T04:47:26.414Z,27.55
2018-06-03T04:49:54.958Z,25.60
2018-06-03T04:52:23.475Z,28.42
2018-06-03T04:54:51.975Z,31.75
2018-06-03T04:57:20.551Z,30.43
2018-06-03T04:59:49.418Z,28.87
2018-06-03T05:02:17.923Z,27.50
2018-06-03T05:04:46.419Z,27.70
2018-06-03T05:07:14.953Z,29.23
2018-06-03T05:09:43.471Z,29.90
2018-06-03T05:12:12.274Z,31.17
2018-06-03T05:14:40.924Z,31.17
2018-06-03T05:17:09.561Z,29.48
2018-06-03T05:19:38.073Z,28.30
2018-06-03T05:22:06.710Z,27.32
2018-06-03T05:24:35.208Z,27.07
2018-06-03T05:27:03.913Z,27.35
2018-06-03T05:29:32.427Z,25.90
2018-06-03T05:32:00.980Z,28.75
2018-06-03T05:34:29.484Z,24.00
2018-06-03T05:36:57.950Z,26.60
2018-06-03T05:39:26.596Z,29.48
2018-06-03T05:41:55.101Z,27.65
2018-06-03T05:44:23.643Z,25.85
2018-06-03T05:46:52.206Z,24.05
2018-06-03T05:49:20.697Z,27.75
2018-06-03T05:51:49.210Z,25.25
2018-06-03T05:54:17.687Z,27.67
2018-06-03T05:56:46.271Z,24.10
2018-06-03T05:59:14.809Z,24.70
2018-06-03T06:01:43.682Z,25.27
2018-06-03T06:04:12.199Z,22.90
2018-06-03T06:06:40.711Z,26.33
2018-06-03T06:09:09.232Z,25.75
2018-06-03T06:11:37.758Z,25.12
2018-06-03T06:14:06.285Z,25.88
2018-06-03T06:16:34.816Z,25.05
2018-06-03T06:19:03.367Z,23.92
2018-06-03T06:21:31.905Z,23.10
2018-06-03T06:24:00.409Z,21.65
2018-06-03T06:26:28.936Z,22.17
2018-06-03T06:28:57.424Z,24.05
2018-06-03T06:31:25.914Z,24.55
2018-06-03T06:33:54.440Z,26.45
2018-06-03T06:36:22.942Z,22.70
2018-06-03T06:38:51.446Z,22.95
2018-06-03T06:41:19.958Z,22.98
2018-06-03T06:43:48.506Z,22.60
2018-06-03T06:46:17.040Z,22.20
2018-06-03T06:48:45.576Z,25.92
2018-06-03T06:51:14.120Z,21.80
2018-06-03T06:53:42.635Z,23.15
2018-06-03T06:56:11.145Z,22.17
2018-06-03T06:58:39.652Z,22.07
2018-06-03T07:01:08.238Z,21.87
2018-06-03T07:03:36.720Z,21.65
2018-06-03T07:06:08.016Z,23.52
2018-06-03T07:08:36.539Z,20.00
2018-06-03T07:11:05.022Z,21.20
2018-06-03T07:13:33.533Z,21.60
2018-06-03T07:16:02.103Z,22.13
2018-06-03T07:18:30.611Z,21.50
2018-06-03T07:20:59.178Z,20.15
2018-06-03T07:23:27.713Z,21.50
2018-06-03T07:25:56.305Z,23.25
2018-06-03T07:28:24.827Z,24.07
2018-06-03T07:30:53.396Z,20.75
2018-06-03T07:33:21.958Z,22.45
2018-06-03T07:35:50.473Z,21.70
2018-06-03T07:38:21.109Z,21.45
2018-06-03T07:40:49.624Z,23.27
2018-06-03T07:43:18.180Z,21.85
2018-06-03T07:45:46.718Z,20.27
2018-06-03T07:48:15.253Z,22.15
2018-06-03T07:50:43.826Z,20.50
2018-06-03T07:53:12.362Z,22.75
2018-06-03T07:55:40.878Z,21.77
2018-06-03T07:58:09.486Z,21.00
2018-06-03T08:00:38.023Z,21.37
2018-06-03T08:03:06.565Z,19.83
2018-06-03T08:05:35.072Z,23.90
2018-06-03T08:08:03.605Z,24.03
2018-06-03T08:10:32.099Z,22.20
2018-06-03T08:13:00.590Z,20.73
2018-06-03T08:15:29.139Z,19.80
2018-06-03T08:17:57.658Z,22.03
2018-06-03T08:20:26.260Z,21.73
2018-06-03T08:22:54.792Z,22.47
2018-06-03T08:25:23.349Z,21.00
2018-06-03T08:27:51.977Z,23.40
2018-06-03T08:30:20.533Z,22.10
2018-06-03T08:32:49.073Z,21.80
2018-06-03T08:35:17.571Z,21.80
2018-06-03T08:37:46.104Z,20.73
2018-06-03T08:40:14.715Z,22.40
2018-06-03T08:42:43.287Z,21.67
2018-06-03T08:45:11.827Z,22.03
2018-06-03T08:47:40.405Z,20.93
2018-06-03T08:50:08.960Z,22.00
2018-06-03T08:52:37.510Z,21.20
2018-06-03T08:55:06.050Z,21.90
2018-06-03T08:57:34.590Z,19.83
2018-06-03T09:00:03.278Z,22.70
2018-06-03T09:02:31.951Z,19.40
2018-06-03T09:05:00.484Z,19.80
2018-06-03T09:07:29.091Z,21.60
2018-06-03T09:09:57.644Z,21.07
2018-06-03T09:12:26.205Z,22.33
2018-06-03T09:14:55.890Z,20.90
2018-06-03T09:17:24.452Z,22.13
2018-06-03T09:19:53.053Z,20.23
2018-06-03T09:22:21.620Z,19.80
2018-06-03T09:24:50.161Z,20.60
2018-06-03T09:27:18.713Z,19.67
2018-06-03T09:29:47.286Z,20.20
2018-06-03T09:32:15.463Z,20.30
2018-06-03T09:34:44.192Z,19.60
2018-06-03T09:37:12.658Z,18.10
2018-06-03T09:39:41.209Z,19.07
2018-06-03T09:42:09.833Z,16.87
2018-06-03T09:44:38.411Z,20.07
2018-06-03T09:47:07.012Z,19.63
2018-06-03T09:49:35.519Z,20.27
2018-06-03T09:52:04.094Z,22.43
2018-06-03T09:54:32.614Z,19.83
2018-06-03T09:57:01.137Z,19.63
2018-06-03T09:59:29.668Z,20.20
2018-06-03T10:01:58.266Z,18.50
2018-06-03T10:04:26.791Z,20.47
2018-06-03T10:06:55.822Z,16.60
2018-06-03T10:09:24.477Z,20.20
2018-06-03T10:11:52.990Z,16.80
2018-06-03T10:14:21.528Z,18.87
2018-06-03T10:16:50.074Z,17.30
2018-06-03T10:19:18.578Z,20.50
2018-06-03T10:21:47.134Z,18.83
2018-06-03T10:24:15.682Z,19.33
2018-06-03T10:26:44.233Z,17.20
2018-06-03T10:29:12.751Z,18.03
2018-06-03T10:31:41.290Z,17.40
2018-06-03T10:34:09.911Z,19.40
2018-06-03T10:36:38.434Z,18.10
2018-06-03T10:39:07.697Z,18.60
2018-06-03T10:41:36.278Z,18.03
2018-06-03T10:44:05.183Z,18.10
2018-06-03T10:46:33.695Z,17.30
2018-06-03T10:49:05.082Z,16.80
2018-06-03T10:51:34.749Z,15.63
2018-06-03T10:54:03.482Z,16.23
2018-06-03T10:56:32.041Z,14.90
2018-06-03T10:59:00.593Z,18.43
2018-06-03T11:01:29.452Z,15.70
2018-06-03T11:03:58.016Z,18.07
2018-06-03T11:06:27.255Z,19.53
2018-06-03T11:08:55.788Z,20.67
2018-06-03T11:11:24.537Z,20.37
2018-06-03T11:13:53.065Z,21.77
2018-06-03T11:16:21.599Z,23.97
2018-06-03T11:18:50.167Z,20.00
2018-06-03T11:21:18.704Z,20.57
2018-06-03T11:23:47.380Z,18.60
2018-06-03T11:26:15.897Z,18.67
2018-06-03T11:28:44.465Z,19.27
2018-06-03T11:31:13.116Z,17.00
2018-06-03T11:33:41.635Z,18.93
2018-06-03T11:36:10.150Z,16.30
2018-06-03T11:38:39.090Z,16.53
2018-06-03T11:41:07.613Z,16.63
2018-06-03T11:43:36.143Z,18.90
2018-06-03T11:46:04.669Z,17.80
2018-06-03T11:48:33.202Z,17.70
2018-06-03T11:51:01.698Z,16.93
2018-06-03T11:53:29.892Z,16.40
2018-06-03T11:55:58.450Z,17.23
2018-06-03T11:58:54.527Z,17.17
2018-06-03T12:01:23.607Z,16.67
2018-06-03T12:03:52.104Z,17.50
2018-06-03T12:06:20.620Z,14.10
2018-06-03T12:08:49.145Z,16.70
2018-06-03T12:11:17.703Z,18.20
2018-06-03T12:13:46.290Z,18.60
2018-06-03T12:16:14.854Z,18.30
2018-06-03T12:18:43.466Z,18.30
2018-06-03T12:21:11.974Z,17.10
2018-06-03T12:23:40.513Z,16.77
2018-06-03T12:26:09.034Z,20.53
2018-06-03T12:28:37.585Z,18.03
2018-06-03T12:31:06.191Z,17.50
2018-06-03T12:33:34.707Z,16.30
2018-06-03T12:36:03.228Z,19.53
2018-06-03T12:38:31.727Z,18.17
2018-06-03T12:41:00.251Z,17.20
2018-06-03T12:43:28.785Z,19.57
2018-06-03T12:45:57.385Z,19.40
2018-06-03T12:48:25.880Z,19.10
2018-06-03T12:50:54.427Z,16.80
2018-06-03T12:53:22.962Z,17.23
2018-06-03T12:55:51.485Z,19.67
2018-06-03T12:58:19.983Z,16.10
2018-06-03T13:00:48.507Z,17.60
2018-06-03T13:03:17.010Z,19.33
2018-06-03T13:05:45.554Z,16.80
2018-06-03T13:08:14.067Z,20.00
2018-06-03T13:10:42.575Z,18.27
2018-06-03T13:13:11.094Z,17.30
2018-06-03T13:15:39.679Z,17.77
2018-06-03T13:18:08.444Z,18.07
2018-06-03T13:20:37.020Z,15.80
2018-06-03T13:23:05.946Z,16.37
2018-06-03T13:25:34.495Z,15.57
2018-06-03T13:28:03.007Z,14.97
2018-06-03T13:30:31.590Z,15.13
2018-06-03T13:33:00.137Z,16.63
2018-06-03T13:35:28.728Z,16.20
2018-06-03T13:37:57.304Z,16.20
2018-06-03T13:40:25.892Z,17.63
2018-06-03T13:42:54.519Z,15.23
2018-06-03T13:45:23.061Z,13.73
2018-06-03T13:47:51.672Z,14.47
2018-06-03T13:50:20.241Z,15.67
2018-06-03T13:52:48.775Z,15.60
2018-06-03T13:55:17.354Z,13.70
2018-06-03T13:57:46.002Z,12.90
2018-06-03T14:00:14.509Z,13.57
2018-06-03T14:02:43.027Z,12.50
2018-06-03T14:05:11.558Z,13.93
2018-06-03T14:07:40.149Z,11.83
2018-06-03T14:10:08.683Z,12.90
2018-06-03T14:12:37.214Z,12.90
2018-06-03T14:15:05.847Z,12.73
2018-06-03T14:17:34.435Z,11.73
2018-06-03T14:20:03.034Z,14.20
2018-06-03T14:22:31.588Z,13.23
2018-06-03T14:25:00.216Z,13.83
2018-06-03T14:27:28.769Z,13.40
2018-06-03T14:29:57.344Z,13.50
2018-06-03T14:32:26.033Z,12.27
2018-06-03T14:34:54.574Z,13.53
2018-06-03T14:37:22.793Z,12.60
2018-06-03T14:39:51.445Z,10.60
2018-06-03T14:42:19.948Z,12.43
2018-06-03T14:44:48.537Z,11.13
2018-06-03T14:47:17.082Z,12.60
2018-06-03T14:49:45.594Z,12.67
2018-06-03T14:52:14.222Z,10.87
2018-06-03T14:54:42.781Z,11.00
2018-06-03T14:57:11.402Z,11.80
2018-06-03T14:59:39.897Z,12.40
2018-06-03T15:02:08.443Z,12.23
2018-06-03T15:04:37.063Z,10.93
2018-06-03T15:07:05.607Z,12.87
2018-06-03T15:09:34.133Z,12.37
2018-06-03T15:12:02.684Z,12.70
2018-06-03T15:14:31.222Z,12.37
2018-06-03T15:16:59.757Z,11.90
2018-06-03T15:19:28.326Z,12.07
2018-06-03T15:21:56.964Z,12.93
2018-06-03T15:24:25.494Z,12.70
2018-06-03T15:26:54.037Z,12.80
2018-06-03T15:29:22.624Z,12.30
2018-06-03T15:31:51.142Z,12.60
2018-06-03T15:34:19.677Z,12.00
2018-06-03T15:36:48.367Z,13.48
2018-06-03T15:39:17.312Z,12.20
2018-06-03T15:41:45.873Z,11.50
2018-06-03T15:44:14.406Z,11.13
2018-06-03T15:46:43.031Z,11.80
2018-06-03T15:49:11.605Z,11.67
2018-06-03T15:51:42.209Z,13.53
2018-06-03T15:54:10.800Z,12.47
2018-06-03T15:56:39.332Z,12.53
2018-06-03T15:59:07.875Z,11.17
2018-06-03T16:01:36.422Z,13.00
2018-06-03T16:04:04.960Z,13.30
2018-06-03T16:06:33.497Z,11.30
2018-06-03T16:09:02.729Z,10.80
2018-06-03T16:11:31.467Z,12.50
2018-06-03T16:14:00.037Z,11.57
2018-06-03T16:16:28.564Z,10.10
2018-06-03T16:18:57.222Z,11.53
2018-06-03T16:21:25.762Z,11.40
2018-06-03T16:23:54.316Z,10.70
2018-06-03T16:26:22.838Z,11.00
2018-06-03T16:28:53.339Z,12.37
2018-06-03T16:31:21.939Z,11.43
2018-06-03T16:33:50.562Z,11.00
2018-06-03T16:36:19.095Z,10.57
2018-06-03T16:38:47.711Z,10.27
2018-06-03T16:41:16.250Z,10.40
2018-06-03T16:43:44.762Z,11.10
2018-06-03T16:46:13.365Z,11.40
2018-06-03T16:48:41.894Z,9.97
2018-06-03T16:51:10.471Z,11.60
2018-06-03T16:53:39.014Z,11.10
2018-06-03T16:56:07.590Z,10.37
2018-06-03T16:58:36.266Z,10.30
2018-06-03T17:01:04.901Z,10.43
2018-06-03T17:03:33.501Z,7.90
2018-06-03T17:06:02.133Z,9.60
2018-06-03T17:08:30.708Z,7.83
2018-06-03T17:10:59.306Z,8.70
2018-06-03T17:13:27.858Z,9.47
2018-06-03T17:15:56.420Z,8.80
2018-06-03T17:18:25.002Z,7.83
2018-06-03T17:20:53.495Z,8.40
2018-06-03T17:23:22.074Z,8.50
2018-06-03T17:25:51.099Z,8.30
2018-06-03T17:28:19.619Z,9.10
2018-06-03T17:30:48.171Z,7.40
2018-06-03T17:33:16.685Z,7.20
2018-06-03T17:35:45.235Z,8.20
2018-06-03T17:38:13.734Z,6.80
2018-06-03T17:40:42.275Z,7.63
2018-06-03T17:43:10.838Z,7.77
2018-06-03T17:45:39.350Z,7.87
2018-06-03T17:48:07.903Z,6.83
2018-06-03T17:50:36.433Z,8.37
2018-06-03T17:53:04.957Z,7.07
2018-06-03T17:55:33.524Z,6.33
2018-06-03T17:58:02.079Z,7.10
2018-06-03T18:00:30.741Z,6.40
2018-06-03T18:02:59.254Z,5.90
2018-06-03T18:05:27.775Z,6.67
2018-06-03T18:07:56.290Z,6.37
2018-06-03T18:10:24.842Z,5.93
2018-06-03T18:12:53.349Z,6.10
2018-06-03T18:15:21.851Z,6.00
2018-06-03T18:17:50.392Z,6.80
2018-06-03T18:20:18.990Z,6.10
2018-06-03T18:22:47.506Z,5.97
2018-06-03T18:25:16.052Z,6.00
2018-06-03T18:27:44.592Z,6.30
2018-06-03T18:30:13.095Z,5.93
2018-06-03T18:32:42.709Z,5.67
2018-06-03T18:35:11.261Z,5.83
2018-06-03T18:37:39.761Z,6.00
2018-06-03T18:40:08.415Z,5.77
2018-06-03T18:42:37.112Z,5.63
2018-06-03T18:45:06.315Z,5.60
2018-06-03T18:47:34.943Z,6.83
2018-06-03T18:50:04.476Z,5.67
2018-06-03T18:52:33.065Z,5.60
2018-06-03T18:55:01.608Z,5.47
2018-06-03T18:57:30.107Z,5.13
2018-06-03T18:59:58.720Z,6.27
2018-06-03T19:02:27.301Z,5.47
2018-06-03T19:04:58.273Z,5.93
2018-06-03T19:07:26.798Z,5.73
2018-06-03T19:09:55.308Z,6.30
2018-06-03T19:12:23.864Z,6.17
2018-06-03T19:14:52.494Z,6.50
2018-06-03T19:17:20.995Z,7.30
2018-06-03T19:19:49.524Z,7.03
2018-06-03T19:22:18.066Z,7.73
2018-06-03T19:24:46.582Z,7.40
2018-06-03T19:27:15.123Z,8.80
2018-06-03T19:29:43.713Z,7.00
2018-06-03T19:32:12.359Z,7.47
2018-06-03T19:34:40.895Z,7.27
2018-06-03T19:37:09.402Z,7.03
2018-06-03T19:39:37.931Z,7.73
2018-06-03T19:42:06.484Z,9.23
2018-06-03T19:44:35.005Z,9.70
2018-06-03T19:47:03.547Z,9.33
2018-06-03T19:49:32.075Z,9.03
2018-06-03T19:52:01.406Z,8.40
2018-06-03T19:54:29.975Z,8.30
2018-06-03T19:56:58.554Z,8.43
2018-06-03T19:59:27.097Z,8.80
2018-06-03T20:01:55.643Z,7.93
2018-06-03T20:04:24.189Z,8.73
2018-06-03T20:06:52.737Z,9.20
2018-06-03T20:09:21.295Z,8.88
2018-06-03T20:11:49.795Z,8.35
2018-06-03T20:14:18.323Z,9.30
2018-06-03T20:16:46.940Z,9.30
2018-06-03T20:19:16.169Z,9.15
2018-06-03T20:21:44.738Z,8.70
2018-06-03T20:24:13.271Z,7.97
2018-06-03T20:26:41.838Z,9.05
2018-06-03T20:29:10.420Z,9.25
2018-06-03T20:31:38.963Z,8.65
2018-06-03T20:34:07.154Z,12.68
2018-06-03T20:36:35.680Z,10.93
2018-06-03T20:39:06.067Z,11.15
2018-06-03T20:41:34.595Z,9.70
2018-06-03T20:44:03.337Z,9.30
2018-06-03T20:46:31.836Z,9.48
2018-06-03T20:49:00.363Z,10.72
2018-06-03T20:51:28.874Z,11.40
2018-06-03T20:53:57.415Z,9.73
2018-06-03T20:56:25.947Z,11.10
2018-06-03T20:58:54.486Z,11.18
2018-06-03T21:01:23.013Z,10.60
2018-06-03T21:03:51.547Z,10.15
2018-06-03T21:06:20.098Z,11.30
2018-06-03T21:08:48.643Z,10.68
2018-06-03T21:11:17.172Z,10.75
2018-06-03T21:13:45.684Z,10.80
2018-06-03T21:16:14.214Z,9.98
2018-06-03T21:18:42.728Z,10.88
2018-06-03T21:21:11.251Z,10.10
2018-06-03T21:23:39.822Z,10.20
2018-06-03T21:26:08.342Z,10.23
2018-06-03T21:28:36.920Z,9.40
2018-06-03T21:31:05.405Z,9.80
2018-06-03T21:33:33.934Z,9.63
2018-06-03T21:36:02.455Z,9.05
2018-06-03T21:38:30.930Z,8.50
2018-06-03T21:40:59.463Z,8.43
2018-06-03T21:43:27.995Z,9.40
2018-06-03T21:45:56.488Z,9.13
2018-06-03T21:48:24.990Z,8.48
2018-06-03T21:50:53.525Z,9.13
2018-06-03T21:53:22.011Z,8.35
2018-06-03T21:55:50.577Z,8.83
2018-06-03T21:58:19.127Z,9.20
2018-06-03T22:00:47.659Z,10.13
2018-06-03T22:03:16.199Z,8.98
2018-06-03T22:05:44.709Z,8.73
2018-06-03T22:08:13.243Z,9.90
2018-06-03T22:10:41.758Z,10.05
2018-06-03T22:13:10.371Z,9.68
2018-06-03T22:15:38.903Z,8.78
2018-06-03T22:18:07.475Z,9.55
2018-06-03T22:20:36.064Z,10.13
2018-06-03T22:23:04.762Z,9.73
2018-06-03T22:25:33.270Z,9.98
2018-06-03T22:28:01.765Z,9.35
2018-06-03T22:30:30.307Z,9.85
2018-06-03T22:32:58.800Z,9.00
2018-06-03T22:35:27.355Z,8.45
2018-06-03T22:37:55.850Z,10.08
2018-06-03T22:40:24.364Z,9.43
2018-06-03T22:42:52.863Z,8.75
2018-06-03T22:45:21.353Z,8.60
2018-06-03T22:47:49.883Z,9.43
2018-06-03T22:50:18.430Z,8.45
2018-06-03T22:52:46.985Z,9.68
2018-06-03T22:55:15.505Z,8.60
2018-06-03T22:57:53.188Z,9.93
2018-06-03T23:00:25.800Z,9.05
2018-06-03T23:02:59.634Z,10.68
2018-06-03T23:05:28.153Z,10.20
2018-06-03T23:07:56.764Z,8.88
2018-06-03T23:10:25.390Z,9.80
2018-06-03T23:12:54.045Z,12.00
2018-06-03T23:15:22.591Z,10.98
2018-06-03T23:17:51.096Z,9.70
2018-06-03T23:20:19.636Z,9.88
2018-06-03T23:22:48.151Z,11.30
2018-06-03T23:25:16.640Z,10.65
2018-06-03T23:27:45.177Z,10.75
2018-06-03T23:30:13.719Z,11.08
2018-06-03T23:32:42.289Z,12.33
2018-06-03T23:35:10.831Z,11.45
2018-06-03T23:37:39.386Z,11.80
2018-06-03T23:40:07.911Z,10.18
2018-06-03T23:42:36.426Z,13.65
2018-06-03T23:45:05.033Z,13.48
2018-06-03T23:47:33.553Z,11.83
2018-06-03T23:50:02.108Z,10.72
2018-06-03T23:52:30.642Z,13.62
2018-06-03T23:54:59.153Z,12.28
2018-06-03T23:57:27.653Z,10.95
2018-06-03T23:59:56.179Z,12.20
